createdAt,value
2023-05-19T00:01:05.938Z,10.45
2023-05-19T00:03:37.661Z,13.05
2023-05-19T00:06:10.686Z,9.93
2023-05-19T00:08:41.163Z,9.90
2023-05-19T00:11:12.133Z,10.07
2023-05-19T00:13:41.917Z,11.75
2023-05-19T00:16:14.017Z,11.07
2023-05-19T00:18:43.669Z,11.68
2023-05-19T00:21:14.838Z,9.75
2023-05-19T00:23:44.319Z,11.43
2023-05-19T00:26:14.315Z,10.73
2023-05-19T00:28:43.899Z,13.90
2023-05-19T00:31:13.500Z,15.32
2023-05-19T00:33:43.164Z,11.40
2023-05-19T00:36:14.384Z,11.73
2023-05-19T00:38:43.965Z,12.73
2023-05-19T00:41:13.531Z,12.90
2023-05-19T00:43:43.145Z,12.85
2023-05-19T00:49:34.673Z,13.77
2023-05-19T00:52:04.967Z,11.82
2023-05-19T00:54:36.110Z,12.57
2023-05-19T00:57:06.191Z,12.27
2023-05-19T00:59:35.884Z,10.85
2023-05-19T01:02:06.033Z,14.32
2023-05-19T01:04:42.071Z,12.32
2023-05-19T01:07:12.844Z,13.05
2023-05-19T01:09:42.326Z,11.38
2023-05-19T01:12:12.215Z,11.70
2023-05-19T01:14:41.742Z,10.40
2023-05-19T01:17:23.450Z,11.70
2023-05-19T01:20:06.962Z,11.65
2023-05-19T01:23:24.143Z,19.38
2023-05-19T01:26:45.064Z,13.95
2023-05-19T01:29:52.962Z,11.20
2023-05-19T01:32:26.334Z,12.50
2023-05-19T01:34:58.054Z,14.15
2023-05-19T01:37:29.408Z,11.50
2023-05-19T01:39:59.632Z,15.38
2023-05-19T01:42:29.843Z,12.88
2023-05-19T01:45:00.422Z,12.85
2023-05-19T01:47:31.574Z,13.13
2023-05-19T01:50:01.179Z,17.35
2023-05-19T01:52:30.945Z,14.70
2023-05-19T01:55:01.993Z,12.50
2023-05-19T01:57:40.251Z,14.20
2023-05-19T02:00:21.342Z,12.90
2023-05-19T02:03:05.557Z,12.07
2023-05-19T02:05:45.966Z,15.75
2023-05-19T02:08:25.929Z,14.50
2023-05-19T02:11:07.706Z,13.35
2023-05-19T02:13:43.039Z,13.27
2023-05-19T02:16:15.886Z,14.00
2023-05-19T02:18:48.741Z,18.73
2023-05-19T02:21:18.356Z,16.70
2023-05-19T02:23:48.339Z,17.00
2023-05-19T02:26:17.859Z,13.45
2023-05-19T02:28:47.521Z,14.32
2023-05-19T02:31:17.078Z,17.98
2023-05-19T02:33:48.178Z,12.25
2023-05-19T02:36:19.436Z,11.73
2023-05-19T02:38:49.191Z,10.82
2023-05-19T02:41:18.802Z,11.23
2023-05-19T02:43:48.255Z,11.57
2023-05-19T02:46:17.791Z,15.38
2023-05-19T02:48:48.826Z,14.00
2023-05-19T02:51:21.150Z,13.15
2023-05-19T02:53:50.716Z,15.82
2023-05-19T02:56:20.184Z,13.10
2023-05-19T02:58:49.990Z,13.43
2023-05-19T03:01:21.597Z,12.98
2023-05-19T03:03:53.003Z,13.45
2023-05-19T03:06:23.847Z,13.43
2023-05-19T03:08:53.499Z,12.68
2023-05-19T03:11:23.523Z,18.35
2023-05-19T03:13:53.247Z,15.10
2023-05-19T03:16:22.814Z,28.05
2023-05-19T03:18:54.121Z,19.88
2023-05-19T03:21:23.670Z,19.63
2023-05-19T03:23:53.390Z,17.90
2023-05-19T03:26:23.262Z,15.00
2023-05-19T03:28:53.106Z,17.20
2023-05-19T03:31:22.751Z,14.52
2023-05-19T03:33:53.842Z,16.27
2023-05-19T03:36:23.416Z,14.18
2023-05-19T03:38:54.427Z,12.57
2023-05-19T03:41:23.870Z,15.32
2023-05-19T03:43:53.594Z,13.20
2023-05-19T03:46:23.163Z,13.57
2023-05-19T03:50:34.723Z,14.88
2023-05-19T03:53:04.515Z,16.02
2023-05-19T03:55:34.138Z,13.63
2023-05-19T03:58:03.721Z,12.93
2023-05-19T04:00:33.753Z,14.23
2023-05-19T04:03:03.626Z,13.88
2023-05-19T04:05:34.745Z,16.85
2023-05-19T04:08:04.307Z,15.70
2023-05-19T04:10:34.075Z,15.15
2023-05-19T04:13:03.762Z,15.15
2023-05-19T04:15:33.416Z,15.13
2023-05-19T04:18:02.859Z,14.02
2023-05-19T04:20:33.971Z,14.90
2023-05-19T04:23:03.673Z,13.20
2023-05-19T04:25:33.903Z,14.05
2023-05-19T04:28:03.517Z,16.33
2023-05-19T04:30:33.851Z,13.35
2023-05-19T04:33:05.108Z,13.18
2023-05-19T04:35:38.378Z,13.82
2023-05-19T04:38:07.961Z,12.70
2023-05-19T04:40:37.374Z,13.45
2023-05-19T04:43:07.600Z,13.75
2023-05-19T04:45:37.958Z,13.52
2023-05-19T04:48:08.335Z,13.93
2023-05-19T04:50:42.282Z,10.80
2023-05-19T04:53:12.062Z,13.95
2023-05-19T04:55:41.602Z,12.02
2023-05-19T04:58:11.142Z,13.23
2023-05-19T05:00:40.526Z,12.07
2023-05-19T05:03:10.179Z,14.95
2023-05-19T05:05:41.193Z,11.57
2023-05-19T05:08:12.422Z,14.43
2023-05-19T05:10:41.884Z,12.43
2023-05-19T05:13:12.487Z,16.33
2023-05-19T05:15:42.697Z,11.88
2023-05-19T05:18:13.593Z,13.35
2023-05-19T05:20:46.580Z,12.98
2023-05-19T05:23:17.086Z,15.82
2023-05-19T05:25:48.253Z,11.15
2023-05-19T05:28:18.140Z,11.25
2023-05-19T05:30:49.297Z,12.98
2023-05-19T05:33:22.546Z,13.13
2023-05-19T05:35:53.578Z,11.27
2023-05-19T05:38:23.195Z,9.43
2023-05-19T05:40:52.842Z,11.98
2023-05-19T05:43:22.344Z,12.27
2023-05-19T05:45:51.776Z,11.60
2023-05-19T05:48:22.360Z,11.18
2023-05-19T05:50:54.891Z,10.20
2023-05-19T05:53:28.062Z,13.55
2023-05-19T05:55:58.330Z,11.02
2023-05-19T05:58:28.963Z,9.65
2023-05-19T06:00:59.921Z,14.30
2023-05-19T06:03:29.551Z,20.70
2023-05-19T06:06:00.607Z,12.20
2023-05-19T06:08:30.271Z,11.82
2023-05-19T06:10:59.770Z,15.13
2023-05-19T06:13:29.278Z,13.52
2023-05-19T06:16:00.562Z,13.70
2023-05-19T06:18:31.461Z,11.32
2023-05-19T06:21:03.529Z,13.05
2023-05-19T06:23:33.244Z,11.77
2023-05-19T06:26:02.523Z,14.35
2023-05-19T06:28:33.341Z,11.80
2023-05-19T06:31:02.806Z,11.90
2023-05-19T06:33:32.867Z,13.43
2023-05-19T06:36:03.849Z,18.23
2023-05-19T06:38:33.376Z,16.63
2023-05-19T06:41:02.753Z,13.65
2023-05-19T06:43:32.279Z,13.95
2023-05-19T06:46:01.857Z,16.15
2023-05-19T06:50:34.741Z,16.17
2023-05-19T06:53:04.623Z,14.07
2023-05-19T06:55:37.088Z,12.20
2023-05-19T06:58:10.888Z,15.05
2023-05-19T07:00:40.501Z,12.10
2023-05-19T07:03:10.082Z,15.90
2023-05-19T07:05:41.056Z,13.70
2023-05-19T07:08:10.399Z,14.93
2023-05-19T07:10:39.941Z,16.13
2023-05-19T07:13:09.397Z,14.80
2023-05-19T07:15:38.909Z,17.88
2023-05-19T07:18:08.446Z,15.50
2023-05-19T07:20:39.425Z,12.63
2023-05-19T07:23:08.931Z,17.30
2023-05-19T07:25:39.632Z,15.32
2023-05-19T07:28:08.984Z,17.05
2023-05-19T07:30:39.243Z,13.40
2023-05-19T07:33:08.919Z,17.90
2023-05-19T07:35:40.408Z,17.27
2023-05-19T07:38:09.765Z,14.90
2023-05-19T07:40:39.432Z,13.55
2023-05-19T07:43:08.929Z,14.35
2023-05-19T07:45:38.497Z,15.88
2023-05-19T07:48:08.153Z,14.95
2023-05-19T07:50:37.733Z,15.38
2023-05-19T07:53:08.472Z,14.32
2023-05-19T07:55:37.882Z,15.07
2023-05-19T07:58:07.220Z,14.60
2023-05-19T08:00:37.131Z,13.13
2023-05-19T08:03:08.168Z,14.80
2023-05-19T08:05:37.984Z,15.00
2023-05-19T08:08:09.038Z,14.18
2023-05-19T08:10:38.597Z,13.77
2023-05-19T08:13:07.946Z,14.43
2023-05-19T08:15:37.394Z,13.73
2023-05-19T08:18:06.899Z,13.10
2023-05-19T08:20:37.017Z,14.13
2023-05-19T08:23:07.902Z,13.25
2023-05-19T08:25:37.434Z,14.90
2023-05-19T08:28:07.104Z,18.40
2023-05-19T08:30:36.551Z,12.90
2023-05-19T08:33:06.640Z,13.63
2023-05-19T08:35:36.032Z,13.63
2023-05-19T08:38:05.584Z,15.10
2023-05-19T08:40:40.034Z,15.98
2023-05-19T08:43:10.171Z,15.13
2023-05-19T08:45:41.777Z,15.05
2023-05-19T08:48:11.430Z,14.45
2023-05-19T08:50:43.891Z,12.30
2023-05-19T08:53:33.101Z,11.32
2023-05-19T08:56:12.285Z,15.25
2023-05-19T08:58:44.265Z,13.98
2023-05-19T09:01:17.451Z,12.43
2023-05-19T09:03:50.249Z,17.48
2023-05-19T09:06:20.121Z,15.02
2023-05-19T09:08:49.778Z,14.70
2023-05-19T09:11:22.809Z,11.50
2023-05-19T09:13:52.359Z,12.48
2023-05-19T09:16:22.295Z,14.00
2023-05-19T09:19:01.512Z,14.48
2023-05-19T09:21:32.511Z,15.65
2023-05-19T09:24:08.138Z,10.50
2023-05-19T09:26:44.228Z,12.85
2023-05-19T09:29:14.828Z,11.93
2023-05-19T09:31:51.936Z,11.68
2023-05-19T09:34:25.131Z,10.68
2023-05-19T09:36:55.391Z,11.38
2023-05-19T09:39:26.490Z,13.55
2023-05-19T09:41:59.270Z,11.45
2023-05-19T09:44:30.751Z,10.35
2023-05-19T09:50:35.914Z,12.80
2023-05-19T09:53:06.708Z,13.45
2023-05-19T09:55:37.379Z,10.35
2023-05-19T09:58:06.899Z,10.82
2023-05-19T10:00:36.481Z,9.18
2023-05-19T10:03:07.421Z,11.25
2023-05-19T10:05:38.738Z,10.85
2023-05-19T10:08:10.650Z,9.18
2023-05-19T10:10:41.118Z,11.77
2023-05-19T10:13:10.768Z,9.45
2023-05-19T10:15:50.018Z,10.90
2023-05-19T10:18:30.038Z,11.45
2023-05-19T10:21:02.960Z,10.45
2023-05-19T10:23:32.524Z,10.88
2023-05-19T10:26:05.321Z,10.85
2023-05-19T10:28:41.222Z,10.32
2023-05-19T10:31:15.114Z,10.68
2023-05-19T10:34:03.724Z,10.77
2023-05-19T10:36:47.924Z,12.73
2023-05-19T10:39:23.366Z,12.48
2023-05-19T10:42:06.229Z,9.07
2023-05-19T10:44:52.811Z,10.95
2023-05-19T10:47:26.406Z,8.95
2023-05-19T10:49:56.499Z,8.60
2023-05-19T10:52:27.308Z,8.75
2023-05-19T10:54:58.622Z,10.40
2023-05-19T10:57:32.069Z,7.87
2023-05-19T11:00:02.165Z,7.93
2023-05-19T11:02:42.854Z,8.70
2023-05-19T11:05:14.987Z,10.07
2023-05-19T11:08:02.530Z,8.82
2023-05-19T11:10:32.258Z,9.48
2023-05-19T11:13:01.811Z,9.13
2023-05-19T11:15:31.657Z,10.00
2023-05-19T11:18:04.146Z,8.85
2023-05-19T11:20:35.519Z,9.18
2023-05-19T11:23:11.001Z,9.30
2023-05-19T11:25:48.960Z,8.05
2023-05-19T11:28:20.458Z,7.35
2023-05-19T11:30:52.368Z,10.20
2023-05-19T11:35:59.291Z,8.50
2023-05-19T11:38:31.418Z,9.87
2023-05-19T11:41:01.018Z,9.23
2023-05-19T11:43:30.619Z,11.23
2023-05-19T11:46:00.295Z,9.00
2023-05-19T11:48:31.511Z,7.85
2023-05-19T11:51:02.690Z,11.85
2023-05-19T11:53:36.395Z,7.22
2023-05-19T11:56:06.831Z,8.00
2023-05-19T11:58:36.353Z,8.00
2023-05-19T12:01:07.081Z,8.80
2023-05-19T12:03:36.667Z,11.90
2023-05-19T12:06:08.680Z,8.82
2023-05-19T12:08:39.961Z,9.23
2023-05-19T12:11:09.477Z,14.43
2023-05-19T12:13:39.023Z,7.90
2023-05-19T12:16:10.135Z,9.02
2023-05-19T12:18:40.562Z,9.07
2023-05-19T12:21:10.091Z,7.93
2023-05-19T12:23:41.773Z,9.48
2023-05-19T12:26:12.427Z,8.95
2023-05-19T12:28:41.692Z,8.02
2023-05-19T12:31:11.071Z,7.82
2023-05-19T12:33:40.763Z,9.70
2023-05-19T12:36:13.553Z,9.88
2023-05-19T12:38:45.709Z,9.38
2023-05-19T12:43:44.541Z,9.18
2023-05-19T12:46:16.596Z,9.57
2023-05-19T12:50:34.720Z,8.80
2023-05-19T12:53:04.802Z,9.43
2023-05-19T12:55:42.432Z,9.32
2023-05-19T12:58:12.885Z,7.65
2023-05-19T13:00:47.691Z,7.20
2023-05-19T13:03:19.196Z,8.15
2023-05-19T13:05:52.107Z,8.63
2023-05-19T13:08:24.263Z,7.72
2023-05-19T13:13:23.063Z,8.02
2023-05-19T13:15:52.642Z,11.18
2023-05-19T13:18:22.741Z,7.43
2023-05-19T13:20:54.684Z,8.25
2023-05-19T13:23:24.127Z,7.53
2023-05-19T13:25:53.602Z,7.82
2023-05-19T13:28:23.719Z,7.45
2023-05-19T13:30:53.264Z,6.80
2023-05-19T13:33:22.780Z,9.93
2023-05-19T13:35:53.666Z,7.05
2023-05-19T13:38:23.071Z,9.80
2023-05-19T13:40:52.510Z,9.35
2023-05-19T13:43:22.078Z,7.85
2023-05-19T13:45:51.976Z,8.32
2023-05-19T13:48:21.655Z,8.38
2023-05-19T13:50:54.656Z,7.30
2023-05-19T13:53:24.238Z,7.85
2023-05-19T13:55:55.391Z,8.10
2023-05-19T13:58:24.804Z,8.23
2023-05-19T14:00:56.646Z,8.15
2023-05-19T14:03:26.496Z,7.95
2023-05-19T14:05:57.509Z,7.43
2023-05-19T14:08:27.132Z,8.20
2023-05-19T14:10:57.561Z,8.80
2023-05-19T14:13:33.059Z,8.38
2023-05-19T14:16:06.319Z,9.15
2023-05-19T14:18:35.886Z,6.95
2023-05-19T14:21:07.439Z,10.82
2023-05-19T14:23:36.881Z,8.23
2023-05-19T14:26:06.472Z,12.55
2023-05-19T14:28:35.856Z,7.68
2023-05-19T14:31:06.241Z,6.85
2023-05-19T14:33:35.886Z,5.38
2023-05-19T14:36:08.075Z,5.47
2023-05-19T14:38:37.574Z,4.80
2023-05-19T14:41:07.619Z,3.97
2023-05-19T14:43:37.173Z,6.70
2023-05-19T14:46:07.188Z,5.10
2023-05-19T14:48:36.575Z,4.93
2023-05-19T14:51:07.558Z,4.95
2023-05-19T14:53:37.034Z,6.25
2023-05-19T14:56:07.904Z,5.97
2023-05-19T14:58:37.509Z,5.10
2023-05-19T15:01:07.262Z,10.32
2023-05-19T15:03:36.810Z,6.93
2023-05-19T15:06:11.709Z,4.78
2023-05-19T15:08:41.980Z,6.35
2023-05-19T15:11:11.440Z,5.13
2023-05-19T15:13:40.993Z,5.63
2023-05-19T15:16:17.602Z,5.45
2023-05-19T15:18:47.943Z,5.55
2023-05-19T15:21:18.898Z,8.07
2023-05-19T15:23:48.281Z,7.20
2023-05-19T15:26:17.746Z,7.38
2023-05-19T15:28:47.172Z,7.82
2023-05-19T15:31:16.681Z,5.45
2023-05-19T15:33:46.299Z,5.43
2023-05-19T15:36:16.851Z,6.53
2023-05-19T15:38:47.651Z,8.13
2023-05-19T15:41:17.107Z,5.40
2023-05-19T15:43:47.384Z,10.27
2023-05-19T15:46:19.322Z,6.28
2023-05-19T15:50:34.489Z,5.55
2023-05-19T15:53:04.161Z,6.70
2023-05-19T15:55:33.831Z,6.47
2023-05-19T15:58:03.143Z,5.88
2023-05-19T16:00:32.693Z,4.80
2023-05-19T16:03:04.917Z,4.68
2023-05-19T16:05:36.053Z,4.55
2023-05-19T16:08:07.711Z,3.90
2023-05-19T16:10:38.366Z,3.63
2023-05-19T16:13:07.750Z,4.32
2023-05-19T16:15:37.263Z,3.92
2023-05-19T16:18:06.788Z,4.90
2023-05-19T16:20:37.628Z,5.88
2023-05-19T16:23:07.137Z,6.55
2023-05-19T16:25:36.633Z,5.97
2023-05-19T16:28:06.607Z,6.57
2023-05-19T16:30:36.262Z,5.90
2023-05-19T16:33:06.134Z,5.93
2023-05-19T16:35:37.329Z,7.75
2023-05-19T16:38:06.799Z,6.57
2023-05-19T16:40:36.726Z,5.90
2023-05-19T16:43:06.312Z,5.45
2023-05-19T16:45:35.905Z,6.47
2023-05-19T16:48:05.693Z,6.20
2023-05-19T16:50:36.908Z,6.70
2023-05-19T16:53:06.627Z,5.90
2023-05-19T16:55:36.055Z,8.15
2023-05-19T16:58:05.470Z,11.63
2023-05-19T17:00:35.722Z,7.70
2023-05-19T17:03:06.336Z,12.82
2023-05-19T17:05:39.222Z,14.38
2023-05-19T17:08:08.680Z,12.48
2023-05-19T17:10:39.484Z,13.27
2023-05-19T17:13:08.998Z,13.98
2023-05-19T17:15:39.999Z,16.17
2023-05-19T17:18:12.684Z,22.42
2023-05-19T17:20:43.606Z,26.10
2023-05-19T17:23:13.057Z,29.55
2023-05-19T17:25:42.655Z,19.00
2023-05-19T17:28:12.230Z,15.55
2023-05-19T17:30:42.681Z,17.35
2023-05-19T17:33:13.585Z,14.88
2023-05-19T17:35:44.476Z,22.40
2023-05-19T17:38:14.016Z,30.30
2023-05-19T17:40:43.536Z,45.40
2023-05-19T17:43:13.023Z,19.02
2023-05-19T17:45:42.601Z,16.20
2023-05-19T17:48:11.995Z,15.48
2023-05-19T17:50:42.846Z,19.60
2023-05-19T17:53:12.970Z,22.48
2023-05-19T17:55:43.854Z,25.77
2023-05-19T17:58:13.829Z,23.60
2023-05-19T18:00:44.024Z,19.60
2023-05-19T18:03:14.582Z,24.88
2023-05-19T18:05:46.090Z,22.33
2023-05-19T18:08:16.828Z,22.65
2023-05-19T18:10:48.834Z,16.48
2023-05-19T18:13:18.265Z,22.48
2023-05-19T18:15:47.653Z,18.90
2023-05-19T18:18:17.102Z,15.68
2023-05-19T18:20:48.461Z,15.80
2023-05-19T18:23:18.358Z,19.90
2023-05-19T18:25:53.523Z,19.67
2023-05-19T18:28:22.926Z,20.52
2023-05-19T18:31:01.417Z,14.38
2023-05-19T18:33:31.472Z,14.27
2023-05-19T18:36:02.497Z,14.80
2023-05-19T18:38:31.938Z,18.05
2023-05-19T18:41:01.943Z,15.55
2023-05-19T18:43:32.702Z,17.65
2023-05-19T18:46:02.190Z,14.48
2023-05-19T18:50:34.045Z,15.60
2023-05-19T18:53:04.640Z,16.63
2023-05-19T18:55:34.227Z,23.88
2023-05-19T18:58:04.474Z,25.58
2023-05-19T19:00:34.323Z,32.58
2023-05-19T19:03:04.082Z,24.65
2023-05-19T19:05:35.101Z,26.50
2023-05-19T19:08:05.897Z,22.08
2023-05-19T19:10:39.266Z,21.60
2023-05-19T19:13:08.740Z,22.30
2023-05-19T19:15:39.954Z,18.83
2023-05-19T19:18:09.397Z,18.25
2023-05-19T19:20:40.445Z,18.98
2023-05-19T19:23:09.845Z,18.30
2023-05-19T19:25:39.297Z,18.30
2023-05-19T19:28:08.828Z,16.00
2023-05-19T19:30:38.397Z,11.00
2023-05-19T19:33:07.878Z,11.23
2023-05-19T19:35:38.795Z,10.95
2023-05-19T19:38:08.224Z,10.38
2023-05-19T19:40:37.645Z,14.75
2023-05-19T19:43:07.086Z,11.60
2023-05-19T19:45:39.287Z,11.20
2023-05-19T19:48:09.305Z,10.65
2023-05-19T19:50:40.319Z,10.38
2023-05-19T19:53:09.772Z,9.05
2023-05-19T19:55:39.187Z,8.88
2023-05-19T19:58:08.577Z,9.50
2023-05-19T20:00:38.057Z,12.32
2023-05-19T20:03:07.984Z,9.75
2023-05-19T20:05:41.177Z,8.82
2023-05-19T20:08:10.636Z,9.00
2023-05-19T20:10:40.140Z,9.10
2023-05-19T20:13:09.847Z,13.13
2023-05-19T20:15:39.322Z,10.15
2023-05-19T20:18:08.875Z,9.60
2023-05-19T20:20:39.860Z,7.65
2023-05-19T20:23:09.961Z,7.72
2023-05-19T20:25:58.452Z,7.72
2023-05-19T20:31:01.546Z,8.70
2023-05-19T20:33:31.958Z,7.53
2023-05-19T20:36:02.726Z,8.27
2023-05-19T20:38:32.261Z,8.30
2023-05-19T20:41:04.051Z,9.88
2023-05-19T20:43:34.409Z,6.87
2023-05-19T20:46:04.064Z,8.88
2023-05-19T20:48:33.664Z,7.95
2023-05-19T20:51:05.680Z,8.45
2023-05-19T20:53:35.161Z,6.85
2023-05-19T20:56:06.998Z,6.95
2023-05-19T20:58:36.311Z,8.93
2023-05-19T21:01:06.164Z,8.05
2023-05-19T21:03:35.729Z,7.65
2023-05-19T21:06:06.992Z,7.22
2023-05-19T21:08:36.437Z,10.70
2023-05-19T21:11:06.618Z,8.43
2023-05-19T21:13:39.350Z,8.27
2023-05-19T21:16:09.208Z,9.05
2023-05-19T21:18:38.654Z,8.07
2023-05-19T21:21:09.514Z,6.38
2023-05-19T21:23:39.138Z,7.65
2023-05-19T21:26:08.633Z,7.22
2023-05-19T21:28:38.103Z,10.55
2023-05-19T21:31:07.734Z,9.85
2023-05-19T21:33:37.256Z,7.32
2023-05-19T21:36:08.917Z,7.82
2023-05-19T21:38:38.369Z,6.73
2023-05-19T21:41:08.002Z,7.70
2023-05-19T21:43:37.419Z,7.32
2023-05-19T21:46:07.796Z,8.30
2023-05-19T21:50:37.127Z,7.53
2023-05-19T21:53:06.643Z,7.78
2023-05-19T21:55:36.323Z,7.10
2023-05-19T21:58:05.711Z,8.73
2023-05-19T22:00:37.016Z,7.20
2023-05-19T22:03:06.830Z,8.93
2023-05-19T22:05:38.481Z,8.32
2023-05-19T22:08:08.216Z,8.13
2023-05-19T22:10:38.883Z,8.73
2023-05-19T22:13:08.826Z,8.75
2023-05-19T22:15:38.470Z,9.00
2023-05-19T22:18:08.353Z,9.18
2023-05-19T22:20:39.451Z,8.98
2023-05-19T22:23:09.080Z,8.00
2023-05-19T22:25:38.570Z,8.00
2023-05-19T22:28:09.273Z,8.60
2023-05-19T22:30:41.091Z,7.80
2023-05-19T22:33:11.437Z,10.52
2023-05-19T22:35:43.017Z,7.82
2023-05-19T22:38:13.157Z,9.40
2023-05-19T22:40:42.593Z,10.02
2023-05-19T22:43:12.047Z,7.75
2023-05-19T22:45:41.858Z,11.40
2023-05-19T22:48:11.775Z,11.07
2023-05-19T22:50:42.804Z,10.93
2023-05-19T22:53:12.148Z,9.80
2023-05-19T22:55:41.912Z,9.10
2023-05-19T22:58:11.476Z,10.93
2023-05-19T23:00:40.818Z,10.57
2023-05-19T23:03:13.237Z,9.82
2023-05-19T23:08:13.598Z,10.98
2023-05-19T23:10:44.293Z,8.68
2023-05-19T23:13:13.751Z,8.77
2023-05-19T23:15:43.139Z,8.98
2023-05-19T23:18:12.567Z,11.25
2023-05-19T23:20:43.814Z,9.65
2023-05-19T23:23:13.366Z,7.82
2023-05-19T23:25:42.614Z,9.30
2023-05-19T23:28:13.454Z,8.60
2023-05-19T23:30:42.746Z,8.02
2023-05-19T23:33:12.361Z,7.88
2023-05-19T23:35:43.768Z,8.10
2023-05-19T23:38:13.215Z,9.55
2023-05-19T23:40:42.725Z,8.60
2023-05-19T23:43:12.145Z,7.72
2023-05-19T23:45:41.631Z,8.45
2023-05-19T23:48:11.310Z,8.15
2023-05-19T23:50:40.941Z,5.70
2023-05-19T23:53:11.802Z,6.90
2023-05-19T23:55:41.286Z,6.55
2023-05-19T23:58:10.648Z,8.60
